Terminal Aerodrome Forecast
Issued by NWS

Home | Current Version | Previous Version | Text Only | Print | Product List | Glossary On
Versions: 1 2 3 4 5 6 7 8 9 10 11 12 13 14 15 16 17 18 19 20 21 22 23 24 25
063
FTUS42 KFFC 261120
TAFRYY
TAF
KRYY 261120Z 2612/2712 26004KT P6SM SCT100
     FM261600 22006KT P6SM SCT035
      TEMPO 2619/2623 4SM -TSRA BKN035CB
     FM270200 21003KT P6SM FEW050 SCT250=

USA.gov is the U.S. government's official web portal to all federal, state and local government web resources and services.